N1983X KPAE-KRNT
Flight info
| Callsign | N1983X |
|---|---|
| Flight time | 0h 12m |
| Altitude | 4000 |
| Route | LUTSY |
| Aircraft | C208/L-SDFGR/C |
Departure
| Time | 2026-04-19 03:37 |
|---|---|
| Airport | Seattle Paine Field International Airport (KPAE) |
Arrival
| Time | 2026-04-19 03:50 |
|---|---|
| Airport | Renton Municipal Airport (KRNT) |
| Time | Latitude | Longitude | Altitude | Speed | Heading |
|---|---|---|---|---|---|
| 2026-04-19 03:21 | 47.90546 | -122.27723 | 565 ft | 0 kts | 314° |
| 2026-04-19 03:30 | 47.90547 | -122.27723 | 565 ft | 0 kts | 314° |
| 2026-04-19 03:30 | 47.90584 | -122.27818 | 565 ft | 21 kts | 315° |
| 2026-04-19 03:31 | 47.90670 | -122.27951 | 569 ft | 19 kts | 314° |
| 2026-04-19 03:31 | 47.90761 | -122.28089 | 570 ft | 16 kts | 314° |
| 2026-04-19 03:31 | 47.90835 | -122.28202 | 570 ft | 15 kts | 315° |
| 2026-04-19 03:31 | 47.90869 | -122.28255 | 565 ft | 0 kts | 307° |
| 2026-04-19 03:32 | 47.90902 | -122.28306 | 569 ft | 13 kts | 314° |
| 2026-04-19 03:32 | 47.91034 | -122.28343 | 569 ft | 27 kts | 359° |
| 2026-04-19 03:32 | 47.91226 | -122.28348 | 568 ft | 29 kts | 359° |
| 2026-04-19 03:33 | 47.91437 | -122.28353 | 569 ft | 32 kts | 359° |
| 2026-04-19 03:33 | 47.91645 | -122.28357 | 566 ft | 27 kts | 359° |
| 2026-04-19 03:33 | 47.91851 | -122.28379 | 565 ft | 32 kts | 355° |
| 2026-04-19 03:33 | 47.92039 | -122.28403 | 565 ft | 23 kts | 355° |
| 2026-04-19 03:34 | 47.92153 | -122.28490 | 566 ft | 21 kts | 265° |
| 2026-04-19 03:34 | 47.92100 | -122.28585 | 566 ft | 0 kts | 179° |
| 2026-04-19 03:36 | 47.92091 | -122.28585 | 572 ft | 7 kts | 179° |
| 2026-04-19 03:36 | 47.91898 | -122.28582 | 565 ft | 53 kts | 179° |
| 2026-04-19 03:36 | 47.91436 | -122.28572 | 601 ft | 73 kts | 179° |
| 2026-04-19 03:36 | 47.90905 | -122.28566 | 790 ft | 76 kts | 181° |
| 2026-04-19 03:37 | 47.90377 | -122.28544 | 1001 ft | 76 kts | 178° |
| 2026-04-19 03:37 | 47.89845 | -122.28551 | 1190 ft | 76 kts | 184° |
| 2026-04-19 03:37 | 47.89490 | -122.28569 | 1307 ft | 78 kts | 178° |
| 2026-04-19 03:37 | 47.88935 | -122.28575 | 1475 ft | 81 kts | 182° |
| 2026-04-19 03:38 | 47.88371 | -122.28599 | 1669 ft | 82 kts | 176° |
| 2026-04-19 03:38 | 47.87783 | -122.28290 | 1854 ft | 98 kts | 158° |
| 2026-04-19 03:38 | 47.87096 | -122.27984 | 2106 ft | 108 kts | 175° |
| 2026-04-19 03:38 | 47.86334 | -122.27999 | 2433 ft | 109 kts | 177° |
| 2026-04-19 03:39 | 47.85576 | -122.27983 | 2770 ft | 111 kts | 178° |
| 2026-04-19 03:39 | 47.84796 | -122.28052 | 3083 ft | 114 kts | 182° |
| 2026-04-19 03:39 | 47.83995 | -122.28188 | 3377 ft | 118 kts | 182° |
| 2026-04-19 03:39 | 47.83193 | -122.28300 | 3741 ft | 114 kts | 181° |
| 2026-04-19 03:40 | 47.82431 | -122.28368 | 4166 ft | 105 kts | 184° |
| 2026-04-19 03:40 | 47.81619 | -122.28554 | 4233 ft | 127 kts | 184° |
| 2026-04-19 03:40 | 47.80711 | -122.28616 | 4393 ft | 134 kts | 173° |
| 2026-04-19 03:40 | 47.79834 | -122.28468 | 4433 ft | 128 kts | 172° |
| 2026-04-19 03:41 | 47.78920 | -122.28339 | 4382 ft | 137 kts | 172° |
| 2026-04-19 03:41 | 47.77915 | -122.28222 | 4384 ft | 150 kts | 173° |
| 2026-04-19 03:41 | 47.76826 | -122.28095 | 4281 ft | 162 kts | 174° |
| 2026-04-19 03:41 | 47.75683 | -122.27963 | 4260 ft | 165 kts | 172° |
| 2026-04-19 03:42 | 47.74542 | -122.27759 | 4210 ft | 168 kts | 171° |
| 2026-04-19 03:42 | 47.73401 | -122.27350 | 4088 ft | 171 kts | 159° |
| 2026-04-19 03:42 | 47.72318 | -122.26716 | 3937 ft | 164 kts | 155° |
| 2026-04-19 03:42 | 47.71318 | -122.26041 | 3755 ft | 154 kts | 154° |
| 2026-04-19 03:43 | 47.70335 | -122.25384 | 3524 ft | 160 kts | 155° |
| 2026-04-19 03:43 | 47.69272 | -122.24992 | 3410 ft | 159 kts | 172° |
| 2026-04-19 03:43 | 47.68164 | -122.24999 | 3262 ft | 161 kts | 182° |
| 2026-04-19 03:43 | 47.67019 | -122.25221 | 3134 ft | 170 kts | 187° |
| 2026-04-19 03:44 | 47.65847 | -122.25551 | 3097 ft | 171 kts | 188° |
| 2026-04-19 03:44 | 47.64684 | -122.25877 | 3114 ft | 169 kts | 188° |
| 2026-04-19 03:44 | 47.63530 | -122.26236 | 3098 ft | 170 kts | 189° |
| 2026-04-19 03:44 | 47.62387 | -122.26558 | 2937 ft | 153 kts | 187° |
| 2026-04-19 03:45 | 47.61408 | -122.26759 | 2666 ft | 134 kts | 183° |
| 2026-04-19 03:45 | 47.60496 | -122.26787 | 2359 ft | 132 kts | 175° |
| 2026-04-19 03:45 | 47.59594 | -122.26613 | 2115 ft | 128 kts | 167° |
| 2026-04-19 03:45 | 47.58752 | -122.26288 | 1804 ft | 126 kts | 160° |
| 2026-04-19 03:46 | 47.57993 | -122.25717 | 1565 ft | 120 kts | 145° |
| 2026-04-19 03:46 | 47.57323 | -122.24979 | 1295 ft | 120 kts | 143° |
| 2026-04-19 03:46 | 47.56579 | -122.24457 | 1077 ft | 117 kts | 163° |
| 2026-04-19 03:46 | 47.55789 | -122.24240 | 846 ft | 116 kts | 175° |
| 2026-04-19 03:47 | 47.55040 | -122.24387 | 780 ft | 98 kts | 199° |
| 2026-04-19 03:47 | 47.54415 | -122.24687 | 712 ft | 93 kts | 193° |
| 2026-04-19 03:47 | 47.53786 | -122.24735 | 666 ft | 91 kts | 171° |
| 2026-04-19 03:47 | 47.53267 | -122.24376 | 622 ft | 74 kts | 141° |
| 2026-04-19 03:48 | 47.52898 | -122.23859 | 508 ft | 72 kts | 131° |
| 2026-04-19 03:48 | 47.52512 | -122.23401 | 450 ft | 72 kts | 147° |
| 2026-04-19 03:48 | 47.52093 | -122.22995 | 397 ft | 72 kts | 143° |
| 2026-04-19 03:48 | 47.51670 | -122.22583 | 349 ft | 73 kts | 148° |
| 2026-04-19 03:49 | 47.51229 | -122.22200 | 292 ft | 75 kts | 150° |
| 2026-04-19 03:49 | 47.50745 | -122.21892 | 225 ft | 76 kts | 160° |
| 2026-04-19 03:49 | 47.50217 | -122.21728 | 142 ft | 78 kts | 171° |
| 2026-04-19 03:49 | 47.49680 | -122.21632 | 37 ft | 73 kts | 173° |
| 2026-04-19 03:50 | 47.49245 | -122.21566 | 32 ft | 53 kts | 174° |
| 2026-04-19 03:50 | 47.48962 | -122.21523 | 33 ft | 32 kts | 174° |
| 2026-04-19 03:50 | 47.48765 | -122.21492 | 31 ft | 22 kts | 173° |
| 2026-04-19 03:50 | 47.48642 | -122.21474 | 30 ft | 11 kts | 175° |
| 2026-04-19 03:51 | 47.48621 | -122.21577 | 32 ft | 19 kts | 323° |
| 2026-04-19 03:51 | 47.48776 | -122.21617 | 32 ft | 27 kts | 354° |
| 2026-04-19 03:51 | 47.48977 | -122.21648 | 33 ft | 25 kts | 353° |
| 2026-04-19 03:51 | 47.49176 | -122.21677 | 32 ft | 32 kts | 354° |
| 2026-04-19 03:52 | 47.49382 | -122.21709 | 32 ft | 18 kts | 352° |
| 2026-04-19 03:52 | 47.49386 | -122.21764 | 32 ft | 1 kts | 79° |
| 2026-04-19 03:52 | 47.49386 | -122.21760 | 32 ft | 0 kts | 84° |